createdAt,value
2019-04-21T00:01:37.656Z,65.00
2019-04-21T00:04:19.909Z,64.80
2019-04-21T00:06:58.770Z,64.30
2019-04-21T00:09:32.645Z,68.70
2019-04-21T00:12:02.536Z,66.00
2019-04-21T00:14:23.651Z,69.10
2019-04-21T00:16:55.600Z,69.10
2019-04-21T00:19:21.733Z,70.60
2019-04-21T00:21:55.336Z,70.40
2019-04-21T00:24:35.016Z,67.40
2019-04-21T00:27:12.542Z,66.40
2019-04-21T00:29:47.846Z,67.00
2019-04-21T00:32:10.512Z,69.90
2019-04-21T00:34:28.111Z,69.20
2019-04-21T00:37:11.017Z,69.00
2019-04-21T00:39:55.701Z,66.80
2019-04-21T00:42:19.947Z,65.00
2019-04-21T00:44:52.036Z,63.30
2019-04-21T00:47:33.022Z,62.70
2019-04-21T00:50:02.259Z,66.90
2019-04-21T00:52:49.205Z,63.30
2019-04-21T00:55:21.866Z,62.40
2019-04-21T01:00:20.240Z,61.70
2019-04-21T01:02:49.939Z,62.70
2019-04-21T01:05:21.348Z,62.30
2019-04-21T01:07:45.441Z,62.60
2019-04-21T01:10:14.914Z,66.00
2019-04-21T01:12:54.936Z,65.20
2019-04-21T01:17:56.021Z,65.50
2019-04-21T01:20:17.273Z,65.40
2019-04-21T01:22:43.039Z,64.60
2019-04-21T01:25:20.283Z,64.00
2019-04-21T01:27:59.715Z,63.30
2019-04-21T01:30:39.890Z,62.70
2019-04-21T01:33:12.401Z,62.20
2019-04-21T01:35:44.267Z,63.40
2019-04-21T01:38:19.174Z,63.50
2019-04-21T01:40:47.658Z,62.40
2019-04-21T01:43:13.666Z,61.60
2019-04-21T01:45:49.378Z,61.70
2019-04-21T01:48:22.893Z,61.30
2019-04-21T01:50:51.165Z,60.40
2019-04-21T01:53:48.580Z,60.40
2019-04-21T01:56:21.711Z,64.70
2019-04-21T01:58:42.904Z,62.30
2019-04-21T02:01:24.689Z,62.20
2019-04-21T02:03:56.961Z,61.10
2019-04-21T02:06:27.660Z,60.50
2019-04-21T02:08:58.080Z,60.60
2019-04-21T02:11:31.270Z,60.20
2019-04-21T02:14:12.918Z,60.50
2019-04-21T02:16:34.579Z,60.80
2019-04-21T02:19:04.416Z,61.80
2019-04-21T02:21:36.989Z,62.40
2019-04-21T02:24:25.454Z,63.10
2019-04-21T02:26:42.995Z,66.40
2019-04-21T02:29:17.355Z,68.00
2019-04-21T02:32:10.524Z,70.70
2019-04-21T02:34:23.907Z,70.00
2019-04-21T02:39:35.537Z,72.10
2019-04-21T02:42:05.611Z,70.10
2019-04-21T02:44:46.257Z,72.30
2019-04-21T02:47:05.212Z,73.90
2019-04-21T02:49:56.591Z,71.60
2019-04-21T02:59:59.955Z,72.50
2019-04-21T03:02:35.006Z,76.10
2019-04-21T03:05:21.042Z,72.30
2019-04-21T03:07:56.385Z,71.40
2019-04-21T03:10:22.300Z,71.10
2019-04-21T03:12:47.811Z,67.90
2019-04-21T03:15:21.909Z,69.60
2019-04-21T03:18:01.775Z,73.10
2019-04-21T03:20:23.851Z,69.10
2019-04-21T03:23:00.186Z,73.20
2019-04-21T03:38:14.711Z,77.60
2019-04-21T03:43:12.642Z,79.60
2019-04-21T03:48:24.160Z,79.90
2019-04-21T03:51:07.394Z,81.20
2019-04-21T03:55:53.450Z,82.40
2019-04-21T04:04:10.019Z,86.20
2019-04-21T04:06:24.546Z,86.90
2019-04-21T04:09:12.787Z,86.90
2019-04-21T04:11:37.776Z,87.90
2019-04-21T04:14:20.404Z,89.10
2019-04-21T04:16:37.191Z,89.80
2019-04-21T04:19:09.634Z,88.90
2019-04-21T04:24:36.125Z,89.00
2019-04-21T04:26:47.198Z,88.30
2019-04-21T04:29:22.457Z,88.50
2019-04-21T04:31:42.707Z,88.80
2019-04-21T04:34:41.671Z,89.70
2019-04-21T04:39:42.871Z,88.50
2019-04-21T04:42:16.354Z,88.10
2019-04-21T04:44:49.993Z,87.80
2019-04-21T04:47:10.292Z,87.30
2019-04-21T04:57:34.297Z,88.30
2019-04-21T05:02:27.812Z,86.40
2019-04-21T05:07:27.136Z,86.30
2019-04-21T05:09:52.236Z,86.70
2019-04-21T05:12:26.820Z,87.20
2019-04-21T05:14:51.805Z,85.10
2019-04-21T05:22:29.050Z,82.60
2019-04-21T05:24:53.759Z,85.10
2019-04-21T05:27:48.280Z,85.50
2019-04-21T05:30:29.122Z,87.90
2019-04-21T05:33:18.791Z,85.20
2019-04-21T05:35:55.478Z,84.80
2019-04-21T05:38:39.245Z,80.40
2019-04-21T05:41:05.132Z,78.00
2019-04-21T05:43:43.033Z,76.40
2019-04-21T05:46:21.231Z,76.10
2019-04-21T05:49:08.034Z,78.40
2019-04-21T05:51:30.608Z,77.00
2019-04-21T05:54:19.310Z,72.80
2019-04-21T05:56:40.790Z,70.70
2019-04-21T05:59:12.218Z,69.90
2019-04-21T06:01:46.731Z,68.10
2019-04-21T06:04:26.510Z,64.90
2019-04-21T06:06:55.427Z,63.90
2019-04-21T06:09:19.039Z,63.90
2019-04-21T06:11:51.620Z,63.50
2019-04-21T06:14:21.696Z,61.90
2019-04-21T06:16:58.754Z,61.60
2019-04-21T06:19:36.708Z,63.10
2019-04-21T06:22:28.972Z,60.70
2019-04-21T06:25:31.123Z,58.00
2019-04-21T06:27:37.726Z,58.10
2019-04-21T06:30:10.436Z,59.60
2019-04-21T06:32:49.120Z,59.00
2019-04-21T06:35:39.953Z,59.60
2019-04-21T06:38:03.796Z,58.00
2019-04-21T06:40:42.551Z,57.10
2019-04-21T06:43:18.246Z,56.10
2019-04-21T06:45:39.988Z,56.50
2019-04-21T06:48:12.216Z,57.50
2019-04-21T06:50:46.638Z,56.90
2019-04-21T06:53:20.684Z,51.80
2019-04-21T06:55:44.114Z,52.90
2019-04-21T06:58:18.384Z,52.30
2019-04-21T07:00:50.960Z,53.10
2019-04-21T07:03:29.716Z,51.40
2019-04-21T07:06:03.543Z,51.10
2019-04-21T07:08:51.482Z,51.10
2019-04-21T07:10:59.171Z,51.30
2019-04-21T07:13:31.229Z,47.90
2019-04-21T07:16:04.784Z,48.90
2019-04-21T07:18:34.305Z,49.80
2019-04-21T07:21:06.422Z,49.90
2019-04-21T07:23:40.503Z,51.70
2019-04-21T07:26:10.413Z,50.60
2019-04-21T07:28:49.753Z,50.10
2019-04-21T07:31:31.487Z,48.70
2019-04-21T07:33:53.435Z,49.10
2019-04-21T07:36:21.854Z,49.20
2019-04-21T07:38:45.249Z,46.40
2019-04-21T07:41:13.585Z,46.60
2019-04-21T07:43:55.285Z,44.70
2019-04-21T07:46:27.325Z,46.10
2019-04-21T07:49:11.118Z,43.60
2019-04-21T07:51:47.650Z,44.60
2019-04-21T07:54:26.854Z,44.40
2019-04-21T07:56:35.032Z,45.40
2019-04-21T07:59:21.302Z,43.80
2019-04-21T08:01:55.022Z,44.70
2019-04-21T08:04:42.454Z,44.00
2019-04-21T08:06:55.435Z,43.90
2019-04-21T08:09:26.050Z,44.30
2019-04-21T08:11:53.319Z,43.80
2019-04-21T08:17:03.164Z,42.60
2019-04-21T08:19:38.333Z,42.90
2019-04-21T08:22:12.515Z,44.20
2019-04-21T08:24:43.757Z,42.30
2019-04-21T08:27:12.056Z,42.60
2019-04-21T08:29:46.520Z,46.10
2019-04-21T08:32:14.505Z,44.10
2019-04-21T08:34:55.185Z,42.40
2019-04-21T08:37:18.305Z,49.00
2019-04-21T08:40:05.099Z,48.70
2019-04-21T08:42:27.124Z,48.70
2019-04-21T08:44:55.816Z,52.40
2019-04-21T08:47:25.532Z,50.40
2019-04-21T08:50:02.151Z,45.80
2019-04-21T08:52:42.748Z,48.30
2019-04-21T08:55:19.344Z,50.80
2019-04-21T08:58:03.937Z,47.10
2019-04-21T09:00:35.949Z,47.80
2019-04-21T09:03:11.786Z,48.80
2019-04-21T09:05:39.354Z,48.10
2019-04-21T09:08:13.770Z,45.50
2019-04-21T09:10:40.006Z,48.40
2019-04-21T09:13:10.127Z,48.60
2019-04-21T09:15:41.890Z,49.40
2019-04-21T09:18:17.295Z,49.00
2019-04-21T09:20:55.307Z,48.70
2019-04-21T09:23:19.403Z,48.20
2019-04-21T09:25:55.407Z,46.50
2019-04-21T09:28:20.061Z,44.90
2019-04-21T09:30:43.319Z,49.70
2019-04-21T09:33:09.275Z,47.60
2019-04-21T09:35:50.134Z,48.80
2019-04-21T09:38:22.733Z,46.20
2019-04-21T09:40:48.982Z,48.80
2019-04-21T09:43:27.032Z,46.50
2019-04-21T09:45:47.831Z,47.90
2019-04-21T09:48:21.051Z,49.30
2019-04-21T09:50:50.411Z,46.60
2019-04-21T09:53:28.746Z,42.90
2019-04-21T09:55:58.113Z,44.30
2019-04-21T09:58:32.873Z,43.20
2019-04-21T10:01:07.489Z,44.00
2019-04-21T10:03:39.665Z,45.60
2019-04-21T10:06:00.677Z,44.00
2019-04-21T10:08:31.857Z,46.20
2019-04-21T10:11:03.279Z,44.20
2019-04-21T10:13:34.478Z,38.60
2019-04-21T10:16:18.166Z,39.30
2019-04-21T10:18:48.347Z,47.30
2019-04-21T10:21:19.786Z,44.70
2019-04-21T10:23:50.141Z,45.10
2019-04-21T10:26:20.386Z,45.60
2019-04-21T10:28:51.023Z,43.30
2019-04-21T10:31:21.261Z,44.50
2019-04-21T10:33:52.521Z,44.70
2019-04-21T10:36:22.817Z,45.10
2019-04-21T10:38:53.998Z,41.10
2019-04-21T10:41:25.557Z,43.80
2019-04-21T10:43:55.807Z,44.00
2019-04-21T10:46:26.658Z,44.00
2019-04-21T10:48:56.942Z,44.70
2019-04-21T10:51:27.053Z,42.20
2019-04-21T10:53:57.964Z,44.50
2019-04-21T10:56:34.371Z,46.10
2019-04-21T10:59:00.331Z,44.70
2019-04-21T11:01:31.496Z,46.90
2019-04-21T11:04:19.571Z,38.70
2019-04-21T11:06:42.108Z,41.80
2019-04-21T11:09:13.756Z,41.90
2019-04-21T11:11:46.486Z,39.10
2019-04-21T11:14:15.876Z,40.10
2019-04-21T11:16:47.686Z,38.10
2019-04-21T11:19:18.139Z,41.30
2019-04-21T11:21:49.313Z,37.50
2019-04-21T11:24:20.822Z,39.50
2019-04-21T11:26:51.970Z,39.50
2019-04-21T11:29:23.286Z,39.10
2019-04-21T11:31:54.753Z,39.00
2019-04-21T11:34:25.173Z,39.50
2019-04-21T11:36:56.347Z,39.80
2019-04-21T11:39:37.575Z,35.60
2019-04-21T11:42:03.656Z,36.30
2019-04-21T11:44:35.193Z,38.50
2019-04-21T11:47:07.106Z,40.80
2019-04-21T11:49:37.257Z,37.20
2019-04-21T11:52:07.326Z,38.10
2019-04-21T11:54:37.559Z,38.60
2019-04-21T11:57:14.015Z,36.20
2019-04-21T11:59:39.667Z,39.40
2019-04-21T12:02:09.870Z,36.90
2019-04-21T12:04:41.205Z,40.30
2019-04-21T12:07:11.529Z,42.30
2019-04-21T12:09:41.794Z,37.20
2019-04-21T12:12:12.053Z,36.40
2019-04-21T12:14:42.235Z,40.00
2019-04-21T12:17:14.140Z,35.60
2019-04-21T12:19:44.766Z,35.20
2019-04-21T12:22:21.279Z,35.20
2019-04-21T12:24:49.067Z,36.30
2019-04-21T12:27:20.368Z,36.60
2019-04-21T12:29:51.663Z,41.80
2019-04-21T12:32:33.751Z,37.40
2019-04-21T12:35:06.112Z,37.90
2019-04-21T12:37:37.176Z,36.30
2019-04-21T12:40:08.511Z,36.80
2019-04-21T12:42:40.857Z,33.50
2019-04-21T12:45:13.106Z,32.10
2019-04-21T12:47:44.004Z,32.90
2019-04-21T12:50:14.861Z,36.20
2019-04-21T12:52:47.347Z,33.60
2019-04-21T12:55:17.822Z,34.40
2019-04-21T12:57:48.037Z,32.70
2019-04-21T13:00:22.817Z,32.90
2019-04-21T13:02:53.980Z,33.10
2019-04-21T13:05:25.484Z,34.50
2019-04-21T13:07:55.790Z,36.30
2019-04-21T13:10:26.424Z,35.00
2019-04-21T13:12:56.613Z,31.50
2019-04-21T13:15:27.350Z,35.10
2019-04-21T13:17:58.475Z,34.60
2019-04-21T13:20:29.736Z,33.50
2019-04-21T13:22:59.878Z,33.70
2019-04-21T13:25:31.749Z,34.00
2019-04-21T13:28:02.901Z,37.50
2019-04-21T13:30:33.097Z,32.30
2019-04-21T13:33:03.312Z,31.10
2019-04-21T13:35:35.099Z,36.20
2019-04-21T13:38:17.300Z,32.00
2019-04-21T13:41:10.736Z,32.90
2019-04-21T13:43:27.257Z,33.60
2019-04-21T13:45:57.653Z,33.50
2019-04-21T13:48:28.616Z,33.60
2019-04-21T13:50:59.539Z,31.80
2019-04-21T13:53:31.111Z,31.80
2019-04-21T13:56:02.602Z,34.10
2019-04-21T13:58:32.859Z,33.80
2019-04-21T14:01:03.502Z,31.50
2019-04-21T14:03:33.767Z,33.70
2019-04-21T14:06:04.537Z,31.80
2019-04-21T14:08:59.024Z,33.70
2019-04-21T14:11:29.339Z,34.50
2019-04-21T14:14:00.592Z,31.40
2019-04-21T14:16:32.044Z,31.80
2019-04-21T14:19:03.374Z,32.40
2019-04-21T14:21:33.778Z,31.20
2019-04-21T14:24:05.166Z,31.80
2019-04-21T14:26:36.274Z,33.20
2019-04-21T14:29:07.637Z,32.60
2019-04-21T14:31:38.253Z,34.30
2019-04-21T14:34:08.537Z,33.70
2019-04-21T14:36:38.962Z,34.10
2019-04-21T14:39:10.640Z,32.60
2019-04-21T14:41:42.121Z,33.60
2019-04-21T14:44:13.196Z,34.60
2019-04-21T14:46:49.234Z,32.70
2019-04-21T14:49:23.742Z,34.50
2019-04-21T14:52:00.972Z,32.90
2019-04-21T14:54:33.173Z,35.20
2019-04-21T14:57:03.542Z,34.00
2019-04-21T14:59:35.203Z,32.50
2019-04-21T15:02:05.744Z,31.40
2019-04-21T15:04:37.574Z,33.80
2019-04-21T15:07:09.547Z,37.20
2019-04-21T15:09:41.552Z,34.10
2019-04-21T15:12:11.873Z,35.50
2019-04-21T15:14:42.287Z,36.60
2019-04-21T15:17:15.372Z,36.80
2019-04-21T15:19:50.906Z,34.10
2019-04-21T15:22:16.501Z,34.40
2019-04-21T15:24:48.025Z,33.10
2019-04-21T15:27:18.998Z,33.70
2019-04-21T15:29:49.119Z,35.70
2019-04-21T15:32:19.324Z,35.40
2019-04-21T15:34:49.896Z,33.70
2019-04-21T15:37:20.124Z,35.30
2019-04-21T15:39:51.180Z,34.60
2019-04-21T15:42:21.349Z,34.70
2019-04-21T15:44:52.443Z,34.20
2019-04-21T15:47:22.520Z,35.60
2019-04-21T15:50:02.771Z,35.30
2019-04-21T15:52:28.024Z,36.40
2019-04-21T15:55:05.503Z,35.20
2019-04-21T15:57:54.315Z,36.00
2019-04-21T16:00:42.695Z,35.30
2019-04-21T16:03:16.569Z,35.30
2019-04-21T16:05:46.819Z,37.10
2019-04-21T16:08:18.258Z,38.80
2019-04-21T16:10:54.914Z,38.00
2019-04-21T16:13:21.600Z,37.40
2019-04-21T16:15:52.504Z,37.90
2019-04-21T16:18:24.413Z,35.80
2019-04-21T16:20:55.803Z,34.80
2019-04-21T16:23:26.650Z,34.80
2019-04-21T16:25:57.088Z,35.20
2019-04-21T16:28:42.468Z,36.00
2019-04-21T16:31:20.315Z,35.00
2019-04-21T16:33:51.276Z,35.20
2019-04-21T16:36:21.545Z,35.00
2019-04-21T16:38:53.635Z,35.60
2019-04-21T16:41:24.407Z,36.30
2019-04-21T16:43:55.420Z,38.00
2019-04-21T16:46:25.533Z,36.60
2019-04-21T16:48:55.970Z,35.60
2019-04-21T16:51:28.455Z,35.60
2019-04-21T16:54:01.790Z,35.40
2019-04-21T16:56:37.428Z,35.20
2019-04-21T16:59:10.610Z,35.80
2019-04-21T17:01:42.728Z,36.50
2019-04-21T17:04:13.019Z,37.00
2019-04-21T17:06:45.019Z,37.00
2019-04-21T17:09:16.669Z,37.40
2019-04-21T17:11:48.520Z,38.10
2019-04-21T17:14:35.497Z,38.30
2019-04-21T17:17:15.754Z,37.60
2019-04-21T17:19:29.131Z,38.40
2019-04-21T17:21:55.283Z,39.70
2019-04-21T17:24:26.455Z,40.10
2019-04-21T17:26:57.432Z,40.90
2019-04-21T17:29:28.721Z,41.20
2019-04-21T17:31:59.690Z,41.90
2019-04-21T17:34:32.547Z,41.60
2019-04-21T17:37:03.580Z,42.60
2019-04-21T17:39:34.601Z,42.90
2019-04-21T17:42:13.959Z,42.60
2019-04-21T17:44:37.357Z,43.40
2019-04-21T17:47:19.232Z,43.40
2019-04-21T17:49:41.027Z,44.00
2019-04-21T17:52:18.174Z,44.00
2019-04-21T17:54:51.190Z,44.90
2019-04-21T17:57:39.273Z,45.80
2019-04-21T18:00:14.096Z,46.50
2019-04-21T18:02:47.937Z,47.00
2019-04-21T18:05:17.967Z,46.70
2019-04-21T18:07:47.826Z,47.90
2019-04-21T18:10:19.065Z,48.20
2019-04-21T18:12:43.574Z,48.70
2019-04-21T18:15:21.848Z,48.90
2019-04-21T18:17:38.707Z,49.50
2019-04-21T18:20:12.083Z,49.10
2019-04-21T18:23:00.497Z,50.00
2019-04-21T18:25:45.180Z,49.30
2019-04-21T18:28:04.912Z,49.00
2019-04-21T18:30:48.727Z,48.20
2019-04-21T18:33:25.076Z,48.30
2019-04-21T18:36:01.944Z,47.80
2019-04-21T18:39:01.233Z,48.10
2019-04-21T18:41:13.473Z,47.60
2019-04-21T18:44:28.804Z,47.50
2019-04-21T18:46:58.710Z,48.80
2019-04-21T18:49:17.386Z,48.10
2019-04-21T18:52:02.499Z,49.20
2019-04-21T18:54:47.080Z,49.20
2019-04-21T18:57:07.876Z,49.60
2019-04-21T18:59:36.103Z,50.10
2019-04-21T19:02:08.055Z,50.30
2019-04-21T19:04:37.574Z,51.30
2019-04-21T19:07:20.096Z,50.90
2019-04-21T19:10:19.104Z,50.90
2019-04-21T19:12:47.978Z,51.40
2019-04-21T19:15:02.430Z,53.10
2019-04-21T19:22:38.704Z,53.40
2019-04-21T19:25:12.938Z,53.50
2019-04-21T19:27:45.201Z,53.50
2019-04-21T19:30:21.674Z,53.50
2019-04-21T19:32:45.194Z,54.10
2019-04-21T19:35:01.639Z,54.30
2019-04-21T19:37:40.081Z,54.20
2019-04-21T19:40:15.820Z,55.10
2019-04-21T19:42:43.779Z,55.30
2019-04-21T19:45:22.407Z,55.80
2019-04-21T19:48:01.000Z,56.10
2019-04-21T19:50:35.065Z,55.60
2019-04-21T19:52:51.911Z,55.40
2019-04-21T19:55:16.066Z,55.00
2019-04-21T19:57:47.069Z,54.20
2019-04-21T20:00:18.971Z,54.10
2019-04-21T20:02:50.439Z,54.00
2019-04-21T20:05:30.416Z,53.80
2019-04-21T20:08:08.319Z,53.40
2019-04-21T20:10:47.205Z,53.60
2019-04-21T20:13:26.118Z,53.60
2019-04-21T20:15:44.704Z,54.00
2019-04-21T20:18:14.055Z,54.10
2019-04-21T20:20:32.785Z,54.10
2019-04-21T20:23:03.163Z,54.20
2019-04-21T20:25:41.754Z,54.00
2019-04-21T20:28:13.292Z,54.20
2019-04-21T20:30:59.556Z,54.40
2019-04-21T20:33:48.729Z,54.70
2019-04-21T20:36:02.170Z,54.40
2019-04-21T20:38:26.447Z,54.60
2019-04-21T20:40:56.711Z,54.60
2019-04-21T20:43:38.064Z,54.80
2019-04-21T20:46:08.250Z,54.60
2019-04-21T20:48:34.062Z,55.50
2019-04-21T20:51:25.620Z,54.40
2019-04-21T20:53:43.887Z,55.30
2019-04-21T20:56:08.628Z,54.70
2019-04-21T20:58:45.156Z,55.00
2019-04-21T21:03:47.902Z,55.50
2019-04-21T21:06:19.513Z,56.00
2019-04-21T21:08:49.923Z,56.40
2019-04-21T21:11:28.014Z,56.90
2019-04-21T21:14:00.379Z,57.20
2019-04-21T21:16:29.657Z,57.40
2019-04-21T21:21:32.731Z,59.10
2019-04-21T21:24:05.404Z,59.40
2019-04-21T21:26:36.944Z,59.60
2019-04-21T21:28:57.547Z,59.70
2019-04-21T21:31:37.191Z,60.00
2019-04-21T21:34:15.296Z,61.30
2019-04-21T21:36:43.200Z,61.60
2019-04-21T21:39:15.776Z,61.90
2019-04-21T21:41:36.827Z,62.30
2019-04-21T21:44:05.871Z,62.50
2019-04-21T21:46:44.132Z,63.20
2019-04-21T21:49:20.789Z,63.40
2019-04-21T21:51:47.243Z,64.40
2019-04-21T21:54:09.626Z,64.40
2019-04-21T21:56:40.797Z,64.50
2019-04-21T21:59:16.477Z,64.70
2019-04-21T22:01:46.995Z,64.70
2019-04-21T22:04:20.957Z,64.60
2019-04-21T22:06:57.581Z,64.40
2019-04-21T22:09:18.626Z,64.50
2019-04-21T22:11:53.559Z,64.50
2019-04-21T22:14:28.287Z,64.90
2019-04-21T22:17:10.700Z,64.30
2019-04-21T22:19:41.720Z,64.30
2019-04-21T22:22:16.863Z,64.20
2019-04-21T22:24:41.446Z,64.60
2019-04-21T22:26:59.456Z,64.00
2019-04-21T22:29:39.195Z,64.50
2019-04-21T22:32:09.515Z,64.40
2019-04-21T22:34:40.295Z,63.50
2019-04-21T22:37:21.223Z,62.90
2019-04-21T22:39:54.313Z,62.70
2019-04-21T22:42:17.332Z,62.70
2019-04-21T22:44:40.652Z,62.80
2019-04-21T22:47:17.195Z,63.10
2019-04-21T22:49:42.688Z,63.50
2019-04-21T22:52:18.697Z,63.60
2019-04-21T22:54:46.746Z,63.50
2019-04-21T22:57:19.846Z,63.60
2019-04-21T22:59:54.862Z,64.00
2019-04-21T23:02:25.911Z,64.00
2019-04-21T23:04:57.660Z,64.20
2019-04-21T23:07:24.724Z,64.40
2019-04-21T23:09:55.563Z,65.20
2019-04-21T23:12:29.669Z,65.80
2019-04-21T23:15:05.838Z,66.00
2019-04-21T23:17:50.195Z,66.00
2019-04-21T23:20:22.649Z,65.80
2019-04-21T23:23:00.862Z,65.80
2019-04-21T23:25:24.478Z,65.80
2019-04-21T23:27:56.211Z,66.10
2019-04-21T23:30:33.812Z,66.70
2019-04-21T23:32:50.215Z,67.10
2019-04-21T23:35:21.824Z,67.00
2019-04-21T23:37:55.667Z,66.70
2019-04-21T23:40:21.813Z,67.10
2019-04-21T23:42:51.228Z,66.70
2019-04-21T23:45:25.148Z,66.10
2019-04-21T23:48:08.060Z,65.40
2019-04-21T23:50:34.216Z,65.60
2019-04-21T23:52:57.466Z,65.20
2019-04-21T23:55:27.688Z,65.40
2019-04-21T23:58:06.999Z,65.40
